createdAt,value
2023-05-17T00:00:20.512Z,2.80
2023-05-17T00:03:58.293Z,2.40
2023-05-17T00:07:36.301Z,2.60
2023-05-17T00:11:13.752Z,2.20
2023-05-17T00:14:51.473Z,3.40
2023-05-17T00:18:29.562Z,3.10
2023-05-17T00:22:06.943Z,2.80
2023-05-17T00:25:44.452Z,4.40
2023-05-17T00:29:22.179Z,2.80
2023-05-17T00:32:59.489Z,3.20
2023-05-17T00:36:37.526Z,3.90
2023-05-17T00:40:16.573Z,3.20
2023-05-17T00:43:52.768Z,2.70
2023-05-17T00:47:30.358Z,2.80
2023-05-17T00:51:08.458Z,2.80
2023-05-17T00:54:46.600Z,2.90
2023-05-17T00:58:24.221Z,3.50
2023-05-17T01:02:01.792Z,3.40
2023-05-17T01:05:38.987Z,3.50
2023-05-17T01:09:17.331Z,3.20
2023-05-17T01:13:10.345Z,3.00
2023-05-17T01:16:54.489Z,3.50
2023-05-17T01:20:19.250Z,2.90
2023-05-17T01:24:03.044Z,3.10
2023-05-17T01:27:27.022Z,3.00
2023-05-17T01:31:04.196Z,3.00
2023-05-17T01:34:42.288Z,2.70
2023-05-17T01:38:17.723Z,3.10
2023-05-17T01:42:05.559Z,3.10
2023-05-17T01:45:42.010Z,2.30
2023-05-17T01:49:30.110Z,3.10
2023-05-17T01:52:53.699Z,2.30
2023-05-17T01:56:34.328Z,2.10
2023-05-17T02:00:09.600Z,2.30
2023-05-17T02:03:41.672Z,1.70
2023-05-17T02:07:18.993Z,2.20
2023-05-17T02:10:56.644Z,2.20
2023-05-17T02:14:34.789Z,1.90
2023-05-17T02:18:13.131Z,1.70
2023-05-17T02:21:49.724Z,1.80
2023-05-17T02:25:27.666Z,1.60
2023-05-17T02:29:05.168Z,1.50
2023-05-17T02:32:43.531Z,1.70
2023-05-17T02:36:20.518Z,1.80
2023-05-17T02:39:58.255Z,1.90
2023-05-17T02:43:36.296Z,1.80
2023-05-17T02:47:13.586Z,2.00
2023-05-17T02:50:51.488Z,2.50
2023-05-17T02:54:29.214Z,1.80
2023-05-17T02:58:06.884Z,1.70
2023-05-17T03:01:44.082Z,1.90
2023-05-17T03:05:40.852Z,1.50
2023-05-17T03:08:59.561Z,1.40
2023-05-17T03:12:37.178Z,1.60
2023-05-17T03:16:15.184Z,1.70
2023-05-17T03:19:52.556Z,2.90
2023-05-17T03:23:30.220Z,1.30
2023-05-17T03:27:08.116Z,1.30
2023-05-17T03:30:45.829Z,1.80
2023-05-17T03:34:23.255Z,1.80
2023-05-17T03:38:03.878Z,1.90
2023-05-17T03:41:38.377Z,2.20
2023-05-17T03:45:16.717Z,2.10
2023-05-17T03:48:54.159Z,1.80
2023-05-17T03:52:31.693Z,1.90
2023-05-17T03:56:12.300Z,1.40
2023-05-17T03:59:47.250Z,2.00
2023-05-17T04:03:24.530Z,3.60
2023-05-17T04:07:02.600Z,1.60
2023-05-17T04:10:42.606Z,2.10
2023-05-17T04:14:19.276Z,1.80
2023-05-17T04:17:55.490Z,2.60
2023-05-17T04:21:33.230Z,3.40
2023-05-17T04:25:10.634Z,2.10
2023-05-17T04:28:48.705Z,2.00
2023-05-17T04:32:26.133Z,3.00
2023-05-17T04:36:04.306Z,3.00
2023-05-17T04:39:43.713Z,3.10
2023-05-17T04:43:19.227Z,2.70
2023-05-17T04:46:56.897Z,2.60
2023-05-17T04:50:34.633Z,2.60
2023-05-17T04:54:12.041Z,2.60
2023-05-17T04:57:50.093Z,3.90
2023-05-17T05:01:29.449Z,2.90
2023-05-17T05:05:06.794Z,2.50
2023-05-17T05:08:42.806Z,3.70
2023-05-17T05:12:20.554Z,4.10
2023-05-17T05:15:58.459Z,2.30
2023-05-17T05:19:36.140Z,2.90
2023-05-17T05:23:13.471Z,3.70
2023-05-17T05:26:51.386Z,4.30
2023-05-17T05:30:28.929Z,3.50
2023-05-17T05:34:07.529Z,3.80
2023-05-17T05:37:45.781Z,2.80
2023-05-17T05:41:22.142Z,2.90
2023-05-17T05:44:59.686Z,3.30
2023-05-17T05:48:40.007Z,3.10
2023-05-17T05:52:15.326Z,3.40
2023-05-17T05:55:52.497Z,3.20
2023-05-17T05:59:30.760Z,3.10
2023-05-17T06:03:08.396Z,2.70
2023-05-17T06:07:05.037Z,3.00
2023-05-17T06:10:23.971Z,2.60
2023-05-17T06:14:01.305Z,2.50
2023-05-17T06:17:38.736Z,2.20
2023-05-17T06:21:17.644Z,2.20
2023-05-17T06:24:53.865Z,4.30
2023-05-17T06:28:31.879Z,3.10
2023-05-17T06:32:09.395Z,2.70
2023-05-17T06:35:56.161Z,2.30
2023-05-17T06:39:24.869Z,2.30
2023-05-17T06:43:02.446Z,1.90
2023-05-17T06:46:40.135Z,2.70
2023-05-17T06:50:17.725Z,2.50
2023-05-17T06:53:55.545Z,2.20
2023-05-17T06:57:51.880Z,2.40
2023-05-17T07:01:10.769Z,3.00
2023-05-17T07:04:50.600Z,2.50
2023-05-17T07:08:26.149Z,2.60
2023-05-17T07:12:06.174Z,2.60
2023-05-17T07:15:42.040Z,2.80
2023-05-17T07:19:19.587Z,2.90
2023-05-17T07:22:57.451Z,2.50
2023-05-17T07:26:34.933Z,2.40
2023-05-17T07:30:14.769Z,2.90
2023-05-17T07:33:50.324Z,2.60
2023-05-17T07:37:27.689Z,2.50
2023-05-17T07:41:09.722Z,2.10
2023-05-17T07:44:43.332Z,2.50
2023-05-17T07:51:59.590Z,2.10
2023-05-17T07:55:36.146Z,2.20
2023-05-17T07:59:13.408Z,2.20
2023-05-17T08:02:51.668Z,1.90
2023-05-17T08:06:29.032Z,2.40
2023-05-17T08:10:07.340Z,2.00
2023-05-17T08:13:45.017Z,2.50
2023-05-17T08:17:22.558Z,2.90
2023-05-17T08:21:00.098Z,2.20
2023-05-17T08:24:37.278Z,2.60
2023-05-17T08:28:15.674Z,2.50
2023-05-17T08:31:55.414Z,1.70
2023-05-17T08:35:32.639Z,2.40
2023-05-17T08:39:08.737Z,2.50
2023-05-17T08:42:46.678Z,2.40
2023-05-17T08:46:23.933Z,2.50
2023-05-17T08:50:02.462Z,2.50
2023-05-17T08:53:39.270Z,3.00
2023-05-17T08:57:20.393Z,2.40
2023-05-17T09:00:54.956Z,1.80
2023-05-17T09:04:32.583Z,2.40
2023-05-17T09:08:13.978Z,1.50
2023-05-17T09:11:47.629Z,1.60
2023-05-17T09:15:27.225Z,2.50
2023-05-17T09:19:07.530Z,2.10
2023-05-17T09:22:40.492Z,1.00
2023-05-17T09:26:18.363Z,1.20
2023-05-17T09:29:55.449Z,1.40
2023-05-17T09:33:33.281Z,1.40
2023-05-17T09:37:15.517Z,1.30
2023-05-17T09:40:48.769Z,1.60
2023-05-17T09:44:25.935Z,2.20
2023-05-17T09:48:17.073Z,1.90
2023-05-17T09:51:44.143Z,3.70
2023-05-17T09:55:28.246Z,2.80
2023-05-17T09:58:58.275Z,2.00
2023-05-17T10:02:38.372Z,1.70
2023-05-17T10:06:19.649Z,1.70
2023-05-17T10:09:51.602Z,2.10
2023-05-17T10:13:34.826Z,2.40
2023-05-17T10:17:07.151Z,3.00
2023-05-17T10:20:43.552Z,2.50
2023-05-17T10:24:21.975Z,2.20
2023-05-17T10:27:59.594Z,1.50
2023-05-17T10:31:39.062Z,1.40
2023-05-17T10:35:15.593Z,2.40
2023-05-17T10:38:52.518Z,2.10
2023-05-17T10:42:31.291Z,2.30
2023-05-17T10:46:15.944Z,1.90
2023-05-17T10:49:48.157Z,1.90
2023-05-17T10:53:22.372Z,2.50
2023-05-17T10:57:06.454Z,1.70
2023-05-17T11:00:41.563Z,1.60
2023-05-17T11:04:33.878Z,2.00
2023-05-17T11:07:52.907Z,1.40
2023-05-17T11:11:30.513Z,2.30
2023-05-17T11:15:16.003Z,2.40
2023-05-17T11:18:53.658Z,2.20
2023-05-17T11:22:25.057Z,2.30
2023-05-17T11:26:17.795Z,1.90
2023-05-17T11:29:41.213Z,1.70
2023-05-17T11:33:25.318Z,2.20
2023-05-17T11:36:56.600Z,2.00
2023-05-17T11:40:32.995Z,1.80
2023-05-17T11:44:10.243Z,2.10
2023-05-17T11:47:48.910Z,2.10
2023-05-17T11:51:25.706Z,1.50
2023-05-17T11:55:04.134Z,1.80
2023-05-17T11:58:42.829Z,1.90
2023-05-17T12:02:36.656Z,1.80
2023-05-17T12:06:07.028Z,2.40
2023-05-17T12:09:35.746Z,2.10
2023-05-17T12:13:10.830Z,2.50
2023-05-17T12:16:54.343Z,1.90
2023-05-17T12:20:26.480Z,1.60
2023-05-17T12:24:04.162Z,1.60
2023-05-17T12:27:41.656Z,1.80
2023-05-17T12:31:22.802Z,1.80
2023-05-17T12:34:57.050Z,2.00
2023-05-17T12:38:36.378Z,1.90
2023-05-17T12:42:12.577Z,1.20
2023-05-17T12:45:50.348Z,1.20
2023-05-17T12:49:27.588Z,1.20
2023-05-17T12:53:09.433Z,1.90
2023-05-17T12:56:46.751Z,1.50
2023-05-17T13:00:21.736Z,1.60
2023-05-17T13:03:58.288Z,1.30
2023-05-17T13:07:36.180Z,1.50
2023-05-17T13:11:15.406Z,1.20
2023-05-17T13:14:53.709Z,1.70
2023-05-17T13:18:29.419Z,1.10
2023-05-17T13:22:07.479Z,1.00
2023-05-17T13:25:44.553Z,1.30
2023-05-17T13:29:35.296Z,1.30
2023-05-17T13:32:59.765Z,1.40
2023-05-17T13:36:37.580Z,1.40
2023-05-17T13:40:15.802Z,1.20
2023-05-17T13:43:52.820Z,1.80
2023-05-17T13:47:32.586Z,0.90
2023-05-17T13:51:08.275Z,1.70
2023-05-17T13:54:46.055Z,0.80
2023-05-17T13:58:24.016Z,1.30
2023-05-17T14:02:01.383Z,1.30
2023-05-17T14:05:39.793Z,1.70
2023-05-17T14:09:16.504Z,1.60
2023-05-17T14:12:54.165Z,1.60
2023-05-17T14:16:32.401Z,1.30
2023-05-17T14:20:10.654Z,1.50
2023-05-17T14:23:47.624Z,1.00
2023-05-17T14:27:24.856Z,1.40
2023-05-17T14:31:02.501Z,0.80
2023-05-17T14:34:40.319Z,1.20
2023-05-17T14:38:18.090Z,1.10
2023-05-17T14:41:55.699Z,1.30
2023-05-17T14:45:33.176Z,1.00
2023-05-17T14:49:10.926Z,1.30
2023-05-17T14:52:48.561Z,1.10
2023-05-17T14:56:26.032Z,1.10
2023-05-17T15:00:10.489Z,1.50
2023-05-17T15:03:41.868Z,0.90
2023-05-17T15:07:19.957Z,1.20
2023-05-17T15:10:58.571Z,1.70
2023-05-17T15:14:36.241Z,1.40
2023-05-17T15:18:13.760Z,1.30
2023-05-17T15:21:49.974Z,1.00
2023-05-17T15:25:27.679Z,1.30
2023-05-17T15:29:05.227Z,1.10
2023-05-17T15:32:42.820Z,1.10
2023-05-17T15:36:20.683Z,1.10
2023-05-17T15:40:08.394Z,1.00
2023-05-17T15:43:41.825Z,1.10
2023-05-17T15:47:13.563Z,1.20
2023-05-17T15:50:51.994Z,0.90
2023-05-17T15:54:28.691Z,1.00
2023-05-17T15:58:09.535Z,1.00
2023-05-17T16:01:46.572Z,0.90
2023-05-17T16:05:22.470Z,1.50
2023-05-17T16:09:00.181Z,1.20
2023-05-17T16:12:37.592Z,0.80
2023-05-17T16:16:15.531Z,1.10
2023-05-17T16:19:54.117Z,1.00
2023-05-17T16:23:31.670Z,1.20
2023-05-17T16:27:08.516Z,1.40
2023-05-17T16:30:46.130Z,1.30
2023-05-17T16:34:26.378Z,1.00
2023-05-17T16:38:01.559Z,1.30
2023-05-17T16:41:39.853Z,1.20
2023-05-17T16:45:20.068Z,1.00
2023-05-17T16:48:55.750Z,1.40
2023-05-17T16:52:33.244Z,1.00
2023-05-17T16:56:09.835Z,1.10
2023-05-17T16:59:47.148Z,1.10
2023-05-17T17:03:25.379Z,1.40
2023-05-17T17:07:02.668Z,0.80
2023-05-17T17:10:40.388Z,1.10
2023-05-17T17:14:18.986Z,0.70
2023-05-17T17:17:56.158Z,0.80
2023-05-17T17:21:36.537Z,0.90
2023-05-17T17:25:10.886Z,1.60
2023-05-17T17:28:48.501Z,1.40
2023-05-17T17:32:26.453Z,1.00
2023-05-17T17:36:04.183Z,0.70
2023-05-17T17:39:42.485Z,0.90
2023-05-17T17:43:19.694Z,0.90
2023-05-17T17:47:16.120Z,0.90
2023-05-17T17:50:34.790Z,1.20
2023-05-17T17:54:12.460Z,1.00
2023-05-17T17:57:51.885Z,1.90
2023-05-17T18:01:28.341Z,0.70
2023-05-17T18:05:05.742Z,1.50
2023-05-17T18:08:43.286Z,0.90
2023-05-17T18:12:21.134Z,1.00
2023-05-17T18:15:58.616Z,1.10
2023-05-17T18:19:36.232Z,1.20
2023-05-17T18:23:13.759Z,1.30
2023-05-17T18:26:51.386Z,0.90
2023-05-17T18:30:29.572Z,1.20
2023-05-17T18:34:06.618Z,0.60
2023-05-17T18:37:44.375Z,1.00
2023-05-17T18:41:22.966Z,0.80
2023-05-17T18:45:01.360Z,0.70
2023-05-17T18:48:39.153Z,0.70
2023-05-17T18:52:15.100Z,0.80
2023-05-17T18:55:52.698Z,0.80
2023-05-17T18:59:32.089Z,1.20
2023-05-17T19:03:09.642Z,1.20
2023-05-17T19:06:45.884Z,1.20
2023-05-17T19:10:23.422Z,1.40
2023-05-17T19:14:00.848Z,0.90
2023-05-17T19:17:39.880Z,1.70
2023-05-17T19:21:16.436Z,1.00
2023-05-17T19:24:53.861Z,1.20
2023-05-17T19:28:34.956Z,0.80
2023-05-17T19:32:09.550Z,1.30
2023-05-17T19:35:47.802Z,1.30
2023-05-17T19:39:24.658Z,1.20
2023-05-17T19:43:02.776Z,1.10
2023-05-17T19:46:40.428Z,1.00
2023-05-17T19:50:17.975Z,1.10
2023-05-17T19:53:55.780Z,1.30
2023-05-17T19:57:34.077Z,1.40
2023-05-17T20:01:11.211Z,0.80
2023-05-17T20:04:48.950Z,0.90
2023-05-17T20:08:26.090Z,1.10
2023-05-17T20:12:04.729Z,1.90
2023-05-17T20:15:41.503Z,1.60
2023-05-17T20:19:19.244Z,0.80
2023-05-17T20:22:56.707Z,1.00
2023-05-17T20:26:37.838Z,0.80
2023-05-17T20:30:12.459Z,1.40
2023-05-17T20:33:49.685Z,0.90
2023-05-17T20:37:27.465Z,1.00
2023-05-17T20:41:07.601Z,1.30
2023-05-17T20:44:44.249Z,1.40
2023-05-17T20:48:21.175Z,1.20
2023-05-17T20:52:05.599Z,0.70
2023-05-17T20:55:36.063Z,0.90
2023-05-17T20:59:13.168Z,0.90
2023-05-17T21:02:51.521Z,0.90
2023-05-17T21:06:31.759Z,1.10
2023-05-17T21:10:07.866Z,1.30
2023-05-17T21:13:44.537Z,1.70
2023-05-17T21:17:22.406Z,1.00
2023-05-17T21:20:59.843Z,0.90
2023-05-17T21:24:37.473Z,1.10
2023-05-17T21:28:15.356Z,0.80
2023-05-17T21:31:52.759Z,1.60
2023-05-17T21:35:29.967Z,1.60
2023-05-17T21:39:08.010Z,0.80
2023-05-17T21:42:45.447Z,1.40
2023-05-17T21:46:42.413Z,1.40
2023-05-17T21:50:00.865Z,2.00
2023-05-17T21:53:38.694Z,1.50
2023-05-17T21:57:15.930Z,1.30
2023-05-17T22:00:53.982Z,1.70
2023-05-17T22:04:31.693Z,1.00
2023-05-17T22:08:09.590Z,1.20
2023-05-17T22:11:47.248Z,1.00
2023-05-17T22:15:24.581Z,1.20
2023-05-17T22:19:05.620Z,0.90
2023-05-17T22:22:40.078Z,0.80
2023-05-17T22:26:17.911Z,1.50
2023-05-17T22:29:55.521Z,1.40
2023-05-17T22:33:35.760Z,1.20
2023-05-17T22:37:11.345Z,1.60
2023-05-17T22:40:48.205Z,1.90
2023-05-17T22:44:26.615Z,1.20
2023-05-17T22:48:06.129Z,1.50
2023-05-17T22:51:42.601Z,1.50
2023-05-17T22:55:19.947Z,1.40
2023-05-17T22:58:56.791Z,1.50
2023-05-17T23:02:34.660Z,1.50
2023-05-17T23:06:13.038Z,1.20
2023-05-17T23:09:49.641Z,2.00
2023-05-17T23:13:27.768Z,1.20
2023-05-17T23:17:05.685Z,1.50
2023-05-17T23:20:43.481Z,0.90
2023-05-17T23:24:20.891Z,1.80
2023-05-17T23:27:58.307Z,1.20
2023-05-17T23:31:35.824Z,1.40
2023-05-17T23:35:13.370Z,1.60
2023-05-17T23:38:51.186Z,1.00
2023-05-17T23:42:32.158Z,1.80
2023-05-17T23:46:06.738Z,1.10
2023-05-17T23:49:44.602Z,1.90
2023-05-17T23:53:23.842Z,1.10
2023-05-17T23:57:00.805Z,1.30
